createdAt,value
2019-01-12T00:00:55.680Z,-55
2019-01-12T00:01:55.019Z,-54
2019-01-12T00:02:58.544Z,-54
2019-01-12T00:03:57.201Z,-55
2019-01-12T00:04:56.209Z,-55
2019-01-12T00:05:55.983Z,-54
2019-01-12T00:06:54.588Z,-54
2019-01-12T00:08:05.770Z,-55
2019-01-12T00:09:03.974Z,-54
2019-01-12T00:10:01.834Z,-54
2019-01-12T00:11:05.619Z,-54
2019-01-12T00:12:05.053Z,-54
2019-01-12T00:13:09.262Z,-54
2019-01-12T00:14:07.097Z,-54
2019-01-12T00:15:06.808Z,-55
2019-01-12T00:16:05.408Z,-55
2019-01-12T00:17:06.468Z,-55
2019-01-12T00:18:03.978Z,-55
2019-01-12T00:19:08.274Z,-55
2019-01-12T00:20:09.777Z,-55
2019-01-12T00:21:08.050Z,-55
2019-01-12T00:22:08.502Z,-55
2019-01-12T00:23:06.810Z,-55
2019-01-12T00:24:05.245Z,-55
2019-01-12T00:25:05.646Z,-55
2019-01-12T00:26:04.485Z,-56
2019-01-12T00:27:02.778Z,-56
2019-01-12T00:28:04.489Z,-55
2019-01-12T00:29:07.744Z,-56
2019-01-12T00:30:06.474Z,-56
2019-01-12T00:31:05.435Z,-55
2019-01-12T00:32:09.023Z,-55
2019-01-12T00:33:07.002Z,-55
2019-01-12T00:34:04.684Z,-55
2019-01-12T00:35:02.779Z,-55
2019-01-12T00:36:00.763Z,-55
2019-01-12T00:36:59.223Z,-55
2019-01-12T00:38:00.706Z,-55
2019-01-12T00:39:00.535Z,-55
2019-01-12T00:39:58.798Z,-55
2019-01-12T00:40:56.980Z,-55
2019-01-12T00:42:00.604Z,-55
2019-01-12T00:42:59.299Z,-55
2019-01-12T00:43:58.140Z,-55
2019-01-12T00:44:55.942Z,-54
2019-01-12T00:45:53.610Z,-55
2019-01-12T00:46:57.922Z,-56
2019-01-12T00:47:54.679Z,-54
2019-01-12T00:48:57.503Z,-54
2019-01-12T00:49:55.249Z,-55
2019-01-12T00:50:55.866Z,-55
2019-01-12T00:51:59.338Z,-55
2019-01-12T00:52:56.633Z,-54
2019-01-12T00:53:53.859Z,-55
2019-01-12T00:54:51.458Z,-55
2019-01-12T00:55:49.702Z,-54
2019-01-12T00:56:50.294Z,-54
2019-01-12T00:57:48.406Z,-55
2019-01-12T00:58:46.542Z,-55
2019-01-12T00:59:45.687Z,-55
2019-01-12T01:00:45.046Z,-54
2019-01-12T01:01:44.983Z,-54
2019-01-12T01:02:48.810Z,-54
2019-01-12T01:03:46.526Z,-54
2019-01-12T01:04:45.841Z,-54
2019-01-12T01:05:45.538Z,-54
2019-01-12T01:06:53.177Z,-54
2019-01-12T01:07:50.402Z,-54
2019-01-12T01:08:49.487Z,-54
2019-01-12T01:09:49.016Z,-54
2019-01-12T01:10:47.350Z,-54
2019-01-12T01:11:45.231Z,-55
2019-01-12T01:12:51.469Z,-54
2019-01-12T01:13:50.120Z,-53
2019-01-12T01:15:02.149Z,-54
2019-01-12T01:16:04.867Z,-54
2019-01-12T01:17:09.218Z,-54
2019-01-12T01:18:07.353Z,-54
2019-01-12T01:19:04.938Z,-55
2019-01-12T01:20:09.784Z,-55
2019-01-12T01:21:15.766Z,-55
2019-01-12T01:22:23.636Z,-55
2019-01-12T01:23:22.211Z,-54
2019-01-12T01:24:21.501Z,-54
2019-01-12T01:25:23.917Z,-55
2019-01-12T01:28:29.666Z,-54
2019-01-12T01:29:41.443Z,-54
2019-01-12T01:30:40.258Z,-54
2019-01-12T01:31:39.856Z,-54
2019-01-12T01:32:38.223Z,-54
2019-01-12T01:33:38.183Z,-54
2019-01-12T01:34:36.160Z,-54
2019-01-12T01:35:40.184Z,-54
2019-01-12T01:36:38.760Z,-53
2019-01-12T01:37:36.601Z,-54
2019-01-12T01:38:38.767Z,-54
2019-01-12T01:39:38.196Z,-54
2019-01-12T01:40:40.909Z,-53
2019-01-12T01:41:42.122Z,-54
2019-01-12T01:42:40.679Z,-55
2019-01-12T01:43:39.272Z,-54
2019-01-12T01:44:38.561Z,-54
2019-01-12T01:45:40.306Z,-55
2019-01-12T01:46:43.233Z,-52
2019-01-12T01:47:41.602Z,-55
2019-01-12T01:48:39.804Z,-54
2019-01-12T01:49:38.660Z,-54
2019-01-12T01:50:39.723Z,-54
2019-01-12T01:51:38.193Z,-55
2019-01-12T01:52:39.569Z,-54
2019-01-12T01:53:40.391Z,-53
2019-01-12T01:54:38.358Z,-54
2019-01-12T01:55:36.589Z,-54
2019-01-12T01:56:38.799Z,-54
2019-01-12T01:57:37.448Z,-54
2019-01-12T01:58:38.403Z,-53
2019-01-12T01:59:38.715Z,-53
2019-01-12T02:00:45.379Z,-54
2019-01-12T02:01:43.321Z,-54
2019-01-12T02:02:42.784Z,-54
2019-01-12T02:03:40.743Z,-53
2019-01-12T02:04:43.313Z,-53
2019-01-12T02:05:50.863Z,-54
2019-01-12T02:06:52.479Z,-54
2019-01-12T02:07:52.227Z,-55
2019-01-12T02:08:52.559Z,-54
2019-01-12T02:09:50.202Z,-54
2019-01-12T02:10:51.749Z,-54
2019-01-12T02:11:50.170Z,-54
2019-01-12T02:12:49.922Z,-54
2019-01-12T02:13:47.837Z,-53
2019-01-12T02:14:47.402Z,-54
2019-01-12T02:15:45.770Z,-54
2019-01-12T02:16:45.044Z,-54
2019-01-12T02:17:44.517Z,-54
2019-01-12T02:18:43.587Z,-55
2019-01-12T02:19:44.599Z,-53
2019-01-12T02:20:42.836Z,-54
2019-01-12T02:21:40.400Z,-54
2019-01-12T02:22:38.381Z,-55
2019-01-12T02:23:38.132Z,-54
2019-01-12T02:24:40.813Z,-54
2019-01-12T02:25:39.078Z,-54
2019-01-12T02:26:36.503Z,-54
2019-01-12T02:27:35.846Z,-54
2019-01-12T02:28:38.356Z,-53
2019-01-12T02:29:35.826Z,-54
2019-01-12T02:30:33.374Z,-54
2019-01-12T02:31:36.356Z,-54
2019-01-12T02:32:38.194Z,-55
2019-01-12T02:33:45.777Z,-54
2019-01-12T02:34:43.921Z,-55
2019-01-12T02:35:41.402Z,-54
2019-01-12T02:36:39.556Z,-54
2019-01-12T02:37:37.284Z,-54
2019-01-12T02:38:42.637Z,-53
2019-01-12T02:39:41.676Z,-54
2019-01-12T02:40:41.132Z,-54
2019-01-12T02:41:44.173Z,-53
2019-01-12T02:42:42.382Z,-55
2019-01-12T02:43:41.664Z,-54
2019-01-12T02:44:39.466Z,-54
2019-01-12T02:45:37.651Z,-54
2019-01-12T02:46:40.538Z,-54
2019-01-12T02:47:41.306Z,-54
2019-01-12T02:48:40.434Z,-54
2019-01-12T02:49:40.909Z,-55
2019-01-12T02:50:40.814Z,-54
2019-01-12T02:51:39.419Z,-54
2019-01-12T02:52:38.141Z,-54
2019-01-12T02:53:36.797Z,-53
2019-01-12T02:54:41.484Z,-53
2019-01-12T02:55:43.149Z,-53
2019-01-12T02:56:44.383Z,-54
2019-01-12T02:57:43.212Z,-54
2019-01-12T02:58:41.626Z,-54
2019-01-12T02:59:40.009Z,-54
2019-01-12T03:00:39.125Z,-54
2019-01-12T03:01:38.136Z,-54
2019-01-12T03:02:35.425Z,-53
2019-01-12T03:03:38.967Z,-53
2019-01-12T03:04:37.611Z,-52
2019-01-12T03:05:36.402Z,-54
2019-01-12T03:06:38.850Z,-53
2019-01-12T03:07:41.331Z,-53
2019-01-12T03:08:45.533Z,-54
2019-01-12T03:09:49.581Z,-53
2019-01-12T03:10:47.111Z,-53
2019-01-12T03:11:45.695Z,-54
2019-01-12T03:12:46.787Z,-54
2019-01-12T03:13:46.499Z,-54
2019-01-12T03:14:44.569Z,-54
2019-01-12T03:15:42.040Z,-54
2019-01-12T03:16:46.527Z,-53
2019-01-12T03:17:46.536Z,-54
2019-01-12T03:18:45.168Z,-54
2019-01-12T03:19:42.877Z,-54
2019-01-12T03:20:40.303Z,-54
2019-01-12T03:21:41.313Z,-54
2019-01-12T03:22:47.404Z,-54
2019-01-12T03:23:49.422Z,-54
2019-01-12T03:24:47.376Z,-53
2019-01-12T03:25:46.179Z,-53
2019-01-12T03:26:47.887Z,-54
2019-01-12T03:27:47.427Z,-54
2019-01-12T03:28:46.801Z,-54
2019-01-12T03:29:46.222Z,-54
2019-01-12T03:30:44.267Z,-54
2019-01-12T03:31:41.563Z,-54
2019-01-12T03:32:46.355Z,-54
2019-01-12T03:33:48.845Z,-54
2019-01-12T03:34:46.056Z,-55
2019-01-12T03:35:49.703Z,-54
2019-01-12T03:36:48.405Z,-54
2019-01-12T03:37:45.923Z,-55
2019-01-12T03:38:43.568Z,-54
2019-01-12T03:39:41.523Z,-54
2019-01-12T03:40:39.019Z,-54
2019-01-12T03:41:40.229Z,-54
2019-01-12T03:42:41.602Z,-54
2019-01-12T03:43:45.416Z,-54
2019-01-12T03:44:43.241Z,-55
2019-01-12T03:45:43.084Z,-53
2019-01-12T03:46:40.858Z,-55
2019-01-12T03:47:38.924Z,-54
2019-01-12T03:48:43.181Z,-54
2019-01-12T03:49:42.327Z,-54
2019-01-12T03:50:40.285Z,-54
2019-01-12T03:51:39.279Z,-53
2019-01-12T03:54:44.029Z,-54
2019-01-12T03:55:56.771Z,-54
2019-01-12T03:57:00.973Z,-54
2019-01-12T03:58:03.587Z,-54
2019-01-12T03:59:02.254Z,-53
2019-01-12T04:00:04.465Z,-54
2019-01-12T04:01:08.373Z,-53
2019-01-12T04:02:08.545Z,-54
2019-01-12T04:03:06.498Z,-54
2019-01-12T04:04:05.529Z,-54
2019-01-12T04:05:05.980Z,-54
2019-01-12T04:06:09.445Z,-54
2019-01-12T04:07:09.497Z,-54
2019-01-12T04:08:18.350Z,-54
2019-01-12T04:09:22.386Z,-54
2019-01-12T04:10:20.317Z,-54
2019-01-12T04:11:19.041Z,-53
2019-01-12T04:12:17.379Z,-54
2019-01-12T04:13:17.965Z,-54
2019-01-12T04:14:22.251Z,-54
2019-01-12T04:15:28.705Z,-54
2019-01-12T04:16:34.876Z,-54
2019-01-12T04:17:34.102Z,-53
2019-01-12T04:18:37.120Z,-54
2019-01-12T04:19:36.811Z,-53
2019-01-12T04:20:36.584Z,-53
2019-01-12T04:21:40.353Z,-54
2019-01-12T04:22:46.328Z,-54
2019-01-12T04:23:44.425Z,-54
2019-01-12T04:24:47.719Z,-54
2019-01-12T04:25:46.255Z,-53
2019-01-12T04:26:45.774Z,-54
2019-01-12T04:27:45.277Z,-54
2019-01-12T04:28:43.905Z,-55
2019-01-12T04:29:41.454Z,-55
2019-01-12T04:30:40.477Z,-54
2019-01-12T04:31:38.701Z,-53
2019-01-12T04:32:38.590Z,-54
2019-01-12T04:33:37.436Z,-54
2019-01-12T04:34:39.374Z,-54
2019-01-12T04:35:46.311Z,-54
2019-01-12T04:36:45.836Z,-54
2019-01-12T04:37:44.939Z,-54
2019-01-12T04:38:50.819Z,-54
2019-01-12T04:39:48.593Z,-55
2019-01-12T04:40:47.211Z,-54
2019-01-12T04:41:45.877Z,-56
2019-01-12T04:42:44.719Z,-54
2019-01-12T04:43:45.975Z,-54
2019-01-12T04:44:48.058Z,-54
2019-01-12T04:45:47.565Z,-55
2019-01-12T04:46:46.110Z,-54
2019-01-12T04:47:44.416Z,-54
2019-01-12T04:48:43.870Z,-54
2019-01-12T04:49:44.389Z,-54
2019-01-12T04:50:50.507Z,-54
2019-01-12T04:51:49.072Z,-54
2019-01-12T04:52:53.183Z,-54
2019-01-12T04:53:55.803Z,-55
2019-01-12T04:55:04.911Z,-54
2019-01-12T04:56:02.861Z,-54
2019-01-12T04:57:03.170Z,-55
2019-01-12T04:58:01.807Z,-55
2019-01-12T04:59:00.337Z,-55
2019-01-12T04:59:59.713Z,-54
2019-01-12T05:01:00.626Z,-54
2019-01-12T05:02:02.160Z,-54
2019-01-12T05:03:02.567Z,-54
2019-01-12T05:04:03.698Z,-54
2019-01-12T05:05:03.637Z,-53
2019-01-12T05:06:01.933Z,-54
2019-01-12T05:07:00.666Z,-54
2019-01-12T05:08:04.860Z,-54
2019-01-12T05:09:04.275Z,-54
2019-01-12T05:10:05.175Z,-53
2019-01-12T05:11:04.738Z,-54
2019-01-12T05:12:03.817Z,-54
2019-01-12T05:13:04.878Z,-53
2019-01-12T05:14:03.570Z,-54
2019-01-12T05:15:06.417Z,-54
2019-01-12T05:16:05.033Z,-54
2019-01-12T05:17:06.275Z,-54
2019-01-12T05:18:04.839Z,-54
2019-01-12T05:19:05.551Z,-54
2019-01-12T05:20:07.099Z,-55
2019-01-12T05:21:04.924Z,-54
2019-01-12T05:22:05.410Z,-54
2019-01-12T05:23:03.407Z,-55
2019-01-12T05:24:07.740Z,-54
2019-01-12T05:25:06.744Z,-55
2019-01-12T05:26:07.343Z,-55
2019-01-12T05:27:05.327Z,-54
2019-01-12T05:28:04.127Z,-55
2019-01-12T05:29:06.044Z,-54
2019-01-12T05:30:07.319Z,-54
2019-01-12T05:31:04.826Z,-54
2019-01-12T05:32:05.366Z,-54
2019-01-12T05:33:04.260Z,-54
2019-01-12T05:34:02.386Z,-55
2019-01-12T05:35:01.620Z,-55
2019-01-12T05:35:59.064Z,-55
2019-01-12T05:37:00.686Z,-55
2019-01-12T05:37:58.905Z,-54
2019-01-12T05:38:57.517Z,-55
2019-01-12T05:39:56.240Z,-54
2019-01-12T05:40:55.230Z,-54
2019-01-12T05:41:54.337Z,-55
2019-01-12T05:42:52.366Z,-55
2019-01-12T05:43:54.924Z,-55
2019-01-12T05:44:55.021Z,-55
2019-01-12T05:45:54.293Z,-55
2019-01-12T05:46:53.896Z,-55
2019-01-12T05:47:52.877Z,-54
2019-01-12T05:48:54.050Z,-55
2019-01-12T05:49:54.314Z,-54
2019-01-12T05:50:53.494Z,-55
2019-01-12T05:51:56.066Z,-55
2019-01-12T05:52:56.165Z,-54
2019-01-12T05:53:57.591Z,-55
2019-01-12T05:54:54.982Z,-55
2019-01-12T05:55:58.107Z,-55
2019-01-12T05:55:59.206Z,-55
2019-01-12T05:57:06.427Z,-54
2019-01-12T05:58:07.940Z,-54
2019-01-12T05:59:06.330Z,-55
2019-01-12T06:00:14.968Z,-55
2019-01-12T06:01:12.495Z,-54
2019-01-12T06:02:11.540Z,-54
2019-01-12T06:03:13.518Z,-54
2019-01-12T06:04:15.558Z,-54
2019-01-12T06:05:13.547Z,-54
2019-01-12T06:06:16.026Z,-54
2019-01-12T06:07:14.896Z,-53
2019-01-12T06:08:14.345Z,-54
2019-01-12T06:09:12.199Z,-54
2019-01-12T06:10:10.667Z,-54
2019-01-12T06:11:14.019Z,-53
2019-01-12T06:12:15.848Z,-53
2019-01-12T06:13:13.225Z,-54
2019-01-12T06:14:15.896Z,-54
2019-01-12T06:15:16.119Z,-54
2019-01-12T06:16:16.102Z,-54
2019-01-12T06:17:18.844Z,-55
2019-01-12T06:18:20.297Z,-54
2019-01-12T06:19:22.470Z,-55
2019-01-12T06:20:23.671Z,-54
2019-01-12T06:21:26.202Z,-54
2019-01-12T06:22:25.479Z,-54
2019-01-12T06:23:27.863Z,-55
2019-01-12T06:24:25.469Z,-54
2019-01-12T06:24:43.117Z,-54
2019-01-12T06:25:43.960Z,-55
2019-01-12T06:26:48.444Z,-54
2019-01-12T06:27:45.956Z,-54
2019-01-12T06:28:43.688Z,-55
2019-01-12T06:29:41.869Z,-55
2019-01-12T06:30:40.373Z,-54
2019-01-12T06:31:41.541Z,-53
2019-01-12T06:32:38.985Z,-53
2019-01-12T06:33:37.287Z,-54
2019-01-12T06:34:39.100Z,-54
2019-01-12T06:35:36.627Z,-53
2019-01-12T06:36:34.634Z,-54
2019-01-12T06:37:33.444Z,-54
2019-01-12T06:38:30.986Z,-54
2019-01-12T06:39:35.455Z,-54
2019-01-12T06:40:35.368Z,-54
2019-01-12T06:41:37.516Z,-54
2019-01-12T06:42:34.933Z,-54
2019-01-12T06:43:34.669Z,-52
2019-01-12T06:44:33.576Z,-54
2019-01-12T06:45:30.947Z,-55
2019-01-12T06:46:29.982Z,-53
2019-01-12T06:47:35.525Z,-55
2019-01-12T06:48:36.919Z,-54
2019-01-12T06:49:38.230Z,-54
2019-01-12T06:50:41.160Z,-54
2019-01-12T06:51:42.132Z,-54
2019-01-12T06:52:42.935Z,-54
2019-01-12T06:53:46.683Z,-53
2019-01-12T06:54:43.990Z,-54
2019-01-12T06:55:44.317Z,-54
2019-01-12T06:56:42.709Z,-55
2019-01-12T06:57:42.935Z,-54
2019-01-12T06:58:42.241Z,-53
2019-01-12T06:59:47.474Z,-54
2019-01-12T07:00:46.170Z,-54
2019-01-12T07:01:44.132Z,-53
2019-01-12T07:02:43.222Z,-54
2019-01-12T07:03:42.604Z,-55
2019-01-12T07:04:42.027Z,-53
2019-01-12T07:05:39.354Z,-53
2019-01-12T07:06:36.677Z,-53
2019-01-12T07:07:35.220Z,-53
2019-01-12T07:08:33.080Z,-53
2019-01-12T07:09:30.537Z,-53
2019-01-12T07:10:33.438Z,-54
2019-01-12T07:11:38.223Z,-53
2019-01-12T07:12:35.684Z,-53
2019-01-12T07:13:36.733Z,-53
2019-01-12T07:14:39.573Z,-54
2019-01-12T07:15:39.760Z,-54
2019-01-12T07:16:39.073Z,-54
2019-01-12T07:17:38.028Z,-53
2019-01-12T07:18:35.685Z,-55
2019-01-12T07:19:39.994Z,-54
2019-01-12T07:20:39.738Z,-54
2019-01-12T07:21:37.656Z,-54
2019-01-12T07:22:36.124Z,-54
2019-01-12T07:23:37.543Z,-53
2019-01-12T07:24:35.250Z,-54
2019-01-12T07:25:33.395Z,-54
2019-01-12T07:26:35.975Z,-54
2019-01-12T07:27:34.486Z,-54
2019-01-12T07:28:33.215Z,-53
2019-01-12T07:29:31.158Z,-54
2019-01-12T07:30:36.657Z,-53
2019-01-12T07:31:41.161Z,-54
2019-01-12T07:32:39.949Z,-54
2019-01-12T07:33:38.169Z,-53
2019-01-12T07:34:36.811Z,-55
2019-01-12T07:35:34.763Z,-55
2019-01-12T07:36:34.694Z,-53
2019-01-12T07:37:32.237Z,-53
2019-01-12T07:38:30.420Z,-53
2019-01-12T07:39:28.578Z,-54
2019-01-12T07:40:36.458Z,-54
2019-01-12T07:41:33.961Z,-55
2019-01-12T07:42:32.459Z,-54
2019-01-12T07:43:30.509Z,-54
2019-01-12T07:44:28.063Z,-54
2019-01-12T07:45:25.719Z,-54
2019-01-12T07:46:24.737Z,-54
2019-01-12T07:47:26.607Z,-54
2019-01-12T07:48:31.208Z,-53
2019-01-12T07:49:31.661Z,-53
2019-01-12T07:50:30.242Z,-54
2019-01-12T07:51:29.385Z,-54
2019-01-12T07:52:38.251Z,-53
2019-01-12T07:53:36.842Z,-53
2019-01-12T07:54:42.805Z,-54
2019-01-12T07:55:44.491Z,-53
2019-01-12T07:56:54.540Z,-53
2019-01-12T07:58:07.582Z,-54
2019-01-12T07:59:11.689Z,-54
2019-01-12T08:00:12.506Z,-54
2019-01-12T08:01:14.058Z,-53
2019-01-12T08:02:12.365Z,-54
2019-01-12T08:03:11.345Z,-54
2019-01-12T08:04:09.852Z,-54
2019-01-12T08:05:12.854Z,-54
2019-01-12T08:06:12.384Z,-54
2019-01-12T08:07:13.345Z,-53
2019-01-12T08:08:13.497Z,-53
2019-01-12T08:09:15.299Z,-53
2019-01-12T08:10:13.240Z,-54
2019-01-12T08:11:12.362Z,-53
2019-01-12T08:12:10.049Z,-53
2019-01-12T08:13:19.450Z,-53
2019-01-12T08:14:17.541Z,-54
2019-01-12T08:15:36.832Z,-54
2019-01-12T08:16:37.297Z,-54
2019-01-12T08:17:38.433Z,-53
2019-01-12T08:18:39.174Z,-54
2019-01-12T08:19:38.916Z,-54
2019-01-12T08:20:38.837Z,-53
2019-01-12T08:21:39.952Z,-55
2019-01-12T08:22:40.611Z,-54
2019-01-12T08:23:47.168Z,-55
2019-01-12T08:24:44.941Z,-54
2019-01-12T08:25:54.311Z,-55
2019-01-12T08:26:52.553Z,-55
2019-01-12T08:27:54.300Z,-57
2019-01-12T08:28:57.030Z,-55
2019-01-12T08:30:01.347Z,-55
2019-01-12T08:30:58.880Z,-56
2019-01-12T08:31:58.145Z,-55
2019-01-12T08:32:58.278Z,-56
2019-01-12T08:33:56.277Z,-56
2019-01-12T08:34:54.746Z,-57
2019-01-12T08:35:52.811Z,-56
2019-01-12T08:36:50.381Z,-56
2019-01-12T08:37:48.711Z,-56
2019-01-12T08:38:50.991Z,-55
2019-01-12T08:39:50.923Z,-55
2019-01-12T08:40:49.253Z,-56
2019-01-12T08:41:55.758Z,-56
2019-01-12T08:42:53.203Z,-56
2019-01-12T08:43:50.630Z,-56
2019-01-12T08:44:51.356Z,-56
2019-01-12T08:45:50.137Z,-56
2019-01-12T08:46:49.591Z,-57
2019-01-12T08:47:56.985Z,-56
2019-01-12T08:48:55.667Z,-56
2019-01-12T08:49:53.623Z,-56
2019-01-12T08:50:53.530Z,-57
2019-01-12T08:51:50.977Z,-56
2019-01-12T08:52:49.850Z,-56
2019-01-12T08:53:51.581Z,-57
2019-01-12T08:54:49.462Z,-56
2019-01-12T08:55:48.081Z,-57
2019-01-12T08:56:46.883Z,-56
2019-01-12T08:57:46.469Z,-56
2019-01-12T08:58:46.069Z,-55
2019-01-12T08:59:43.317Z,-56
2019-01-12T09:00:40.902Z,-56
2019-01-12T09:01:38.466Z,-57
2019-01-12T09:02:36.256Z,-54
2019-01-12T09:03:34.689Z,-54
2019-01-12T09:04:32.271Z,-56
2019-01-12T09:05:37.035Z,-56
2019-01-12T09:06:35.882Z,-55
2019-01-12T09:07:37.230Z,-55
2019-01-12T09:08:37.175Z,-55
2019-01-12T09:09:39.858Z,-55
2019-01-12T09:10:41.329Z,-56
2019-01-12T09:11:42.390Z,-55
2019-01-12T09:12:42.816Z,-56
2019-01-12T09:13:49.615Z,-54
2019-01-12T09:14:47.470Z,-55
2019-01-12T09:15:47.127Z,-57
2019-01-12T09:16:45.038Z,-55
2019-01-12T09:17:42.460Z,-56
2019-01-12T09:18:44.770Z,-56
2019-01-12T09:19:42.550Z,-56
2019-01-12T09:20:42.681Z,-56
2019-01-12T09:21:40.260Z,-56
2019-01-12T09:22:38.807Z,-57
2019-01-12T09:23:43.194Z,-56
2019-01-12T09:24:40.433Z,-56
2019-01-12T09:25:41.147Z,-56
2019-01-12T09:26:44.965Z,-56
2019-01-12T09:27:45.506Z,-55
2019-01-12T09:28:44.122Z,-56
2019-01-12T09:29:43.666Z,-57
2019-01-12T09:30:48.443Z,-56
2019-01-12T09:30:48.558Z,-56
2019-01-12T09:31:42.298Z,-56
2019-01-12T09:32:39.817Z,-57
2019-01-12T09:33:39.546Z,-56
2019-01-12T09:34:39.061Z,-56
2019-01-12T09:35:40.064Z,-56
2019-01-12T09:36:40.719Z,-61
2019-01-12T09:37:38.646Z,-57
2019-01-12T09:38:39.234Z,-57
2019-01-12T09:39:37.608Z,-58
2019-01-12T09:40:40.311Z,-59
2019-01-12T09:41:38.778Z,-57
2019-01-12T09:42:38.901Z,-58
2019-01-12T09:43:36.524Z,-60
2019-01-12T09:44:37.420Z,-58
2019-01-12T09:45:35.068Z,-58
2019-01-12T09:46:37.456Z,-58
2019-01-12T09:47:35.818Z,-58
2019-01-12T09:48:33.090Z,-57
2019-01-12T09:49:30.829Z,-59
2019-01-12T09:50:35.121Z,-58
2019-01-12T09:51:38.836Z,-59
2019-01-12T09:52:37.782Z,-58
2019-01-12T09:53:38.991Z,-58
2019-01-12T09:54:36.153Z,-57
2019-01-12T09:55:35.875Z,-59
2019-01-12T09:56:34.524Z,-58
2019-01-12T09:57:32.164Z,-58
2019-01-12T09:58:29.567Z,-59
2019-01-12T09:59:29.805Z,-58
2019-01-12T10:00:29.346Z,-58
2019-01-12T10:01:26.521Z,-57
2019-01-12T10:02:28.028Z,-58
2019-01-12T10:03:27.123Z,-59
2019-01-12T10:04:29.777Z,-57
2019-01-12T10:05:29.287Z,-58
2019-01-12T10:06:27.178Z,-59
2019-01-12T10:07:28.538Z,-58
2019-01-12T10:08:43.963Z,-57
2019-01-12T10:09:41.314Z,-57
2019-01-12T10:10:44.836Z,-59
2019-01-12T10:11:42.995Z,-58
2019-01-12T10:12:41.913Z,-57
2019-01-12T10:13:41.748Z,-58
2019-01-12T10:14:39.675Z,-58
2019-01-12T10:15:37.053Z,-58
2019-01-12T10:16:35.477Z,-58
2019-01-12T10:17:33.681Z,-58
2019-01-12T10:18:31.214Z,-57
2019-01-12T10:19:29.122Z,-57
2019-01-12T10:20:33.765Z,-57
2019-01-12T10:21:32.502Z,-57
2019-01-12T10:22:30.151Z,-57
2019-01-12T10:23:27.332Z,-58
2019-01-12T10:24:26.054Z,-64
2019-01-12T10:25:23.860Z,-58
2019-01-12T10:26:23.054Z,-58
2019-01-12T10:27:20.333Z,-58
2019-01-12T10:28:20.715Z,-59
2019-01-12T10:29:22.941Z,-58
2019-01-12T10:30:25.110Z,-58
2019-01-12T10:31:22.267Z,-59
2019-01-12T10:32:20.913Z,-59
2019-01-12T10:33:19.958Z,-58
2019-01-12T10:34:29.200Z,-58
2019-01-12T10:35:27.322Z,-59
2019-01-12T10:36:24.986Z,-59
2019-01-12T10:37:22.802Z,-59
2019-01-12T10:38:27.961Z,-59
2019-01-12T10:39:28.517Z,-58
2019-01-12T10:40:29.602Z,-58
2019-01-12T10:41:29.821Z,-58
2019-01-12T10:42:28.851Z,-58
2019-01-12T10:43:29.091Z,-58
2019-01-12T10:44:32.854Z,-58
2019-01-12T10:45:30.841Z,-58
2019-01-12T10:46:28.871Z,-58
2019-01-12T10:47:29.713Z,-58
2019-01-12T10:48:29.379Z,-58
2019-01-12T10:49:27.707Z,-57
2019-01-12T10:50:27.011Z,-58
2019-01-12T10:51:25.014Z,-57
2019-01-12T10:52:27.332Z,-58
2019-01-12T10:53:26.425Z,-57
2019-01-12T10:54:23.803Z,-58
2019-01-12T10:55:21.701Z,-59
2019-01-12T10:56:28.779Z,-57
2019-01-12T10:57:27.660Z,-57
2019-01-12T10:58:37.911Z,-57
2019-01-12T10:59:35.152Z,-56
2019-01-12T11:00:35.673Z,-57
2019-01-12T11:01:33.242Z,-58
2019-01-12T11:02:35.939Z,-57
2019-01-12T11:03:36.645Z,-58
2019-01-12T11:04:34.433Z,-57
2019-01-12T11:05:33.184Z,-56
2019-01-12T11:06:33.929Z,-57
2019-01-12T11:07:35.711Z,-57
2019-01-12T11:08:44.735Z,-57
2019-01-12T11:09:43.637Z,-57
2019-01-12T11:10:42.085Z,-57
2019-01-12T11:11:42.042Z,-57
2019-01-12T11:12:39.358Z,-58
2019-01-12T11:13:40.456Z,-59
2019-01-12T11:14:39.826Z,-59
2019-01-12T11:15:40.418Z,-59
2019-01-12T11:16:39.235Z,-57
2019-01-12T11:17:52.350Z,-57
2019-01-12T11:19:01.547Z,-57
2019-01-12T11:20:01.771Z,-58
2019-01-12T11:21:03.800Z,-67
2019-01-12T11:22:08.956Z,-59
2019-01-12T11:23:09.219Z,-58
2019-01-12T11:24:07.643Z,-57
2019-01-12T11:25:09.580Z,-58
2019-01-12T11:26:12.175Z,-57
2019-01-12T11:27:12.386Z,-58
2019-01-12T11:28:21.618Z,-58
2019-01-12T11:29:20.278Z,-56
2019-01-12T11:30:21.886Z,-57
2019-01-12T11:31:20.019Z,-56
2019-01-12T11:32:21.672Z,-56
2019-01-12T11:33:20.714Z,-56
2019-01-12T11:34:17.854Z,-55
2019-01-12T11:35:16.249Z,-57
2019-01-12T11:36:15.056Z,-56
2019-01-12T11:37:16.249Z,-56
2019-01-12T11:38:14.483Z,-56
2019-01-12T11:39:12.144Z,-56
2019-01-12T11:40:09.417Z,-57
2019-01-12T11:41:07.594Z,-57
2019-01-12T11:42:04.996Z,-56
2019-01-12T11:43:03.761Z,-57
2019-01-12T11:44:00.807Z,-58
2019-01-12T11:44:59.628Z,-58
2019-01-12T11:46:02.275Z,-58
2019-01-12T11:46:59.681Z,-59
2019-01-12T11:48:02.186Z,-58
2019-01-12T11:49:03.641Z,-58
2019-01-12T11:50:00.968Z,-57
2019-01-12T11:51:04.176Z,-57
2019-01-12T11:52:04.529Z,-56
2019-01-12T11:53:06.287Z,-59
2019-01-12T11:54:04.159Z,-59
2019-01-12T11:55:02.202Z,-58
2019-01-12T11:55:59.563Z,-58
2019-01-12T11:56:57.241Z,-59
2019-01-12T11:57:54.934Z,-55
2019-01-12T11:58:52.512Z,-56
2019-01-12T11:59:49.596Z,-56
2019-01-12T12:00:46.798Z,-57
2019-01-12T12:01:44.368Z,-56
2019-01-12T12:02:48.192Z,-55
2019-01-12T12:03:46.872Z,-55
2019-01-12T12:04:48.243Z,-54
2019-01-12T12:05:45.945Z,-56
2019-01-12T12:06:45.529Z,-56
2019-01-12T12:07:44.700Z,-56
2019-01-12T12:08:43.980Z,-55
2019-01-12T12:09:46.165Z,-55
2019-01-12T12:10:45.184Z,-55
2019-01-12T12:11:50.702Z,-55
2019-01-12T12:12:48.077Z,-56
2019-01-12T12:13:46.055Z,-56
2019-01-12T12:14:47.156Z,-55
2019-01-12T12:15:47.201Z,-56
2019-01-12T12:16:48.594Z,-55
2019-01-12T12:17:45.835Z,-55
2019-01-12T12:18:45.300Z,-56
2019-01-12T12:19:43.622Z,-55
2019-01-12T12:20:43.463Z,-54
2019-01-12T12:21:45.010Z,-55
2019-01-12T12:22:42.752Z,-55
2019-01-12T12:23:42.090Z,-55
2019-01-12T12:24:41.047Z,-56
2019-01-12T12:25:44.723Z,-55
2019-01-12T12:26:41.866Z,-56
2019-01-12T12:27:39.973Z,-55
2019-01-12T12:28:39.916Z,-53
2019-01-12T12:29:38.063Z,-50
2019-01-12T12:30:38.757Z,-53
2019-01-12T12:31:37.756Z,-54
2019-01-12T12:32:35.921Z,-54
2019-01-12T12:33:37.866Z,-54
2019-01-12T12:34:40.590Z,-51
2019-01-12T12:35:39.795Z,-52
2019-01-12T12:36:42.239Z,-52
2019-01-12T12:37:45.010Z,-55
2019-01-12T12:38:45.073Z,-59
2019-01-12T12:39:48.943Z,-54
2019-01-12T12:40:48.102Z,-55
2019-01-12T12:41:48.668Z,-55
2019-01-12T12:42:49.005Z,-55
2019-01-12T12:43:48.916Z,-56
2019-01-12T12:44:50.399Z,-56
2019-01-12T12:45:50.726Z,-55
2019-01-12T12:46:50.383Z,-54
2019-01-12T12:47:48.332Z,-54
2019-01-12T12:48:47.925Z,-54
2019-01-12T12:49:46.205Z,-57
2019-01-12T12:50:45.571Z,-56
2019-01-12T12:51:43.598Z,-56
2019-01-12T12:52:41.788Z,-58
2019-01-12T12:53:40.184Z,-55
2019-01-12T12:54:38.490Z,-54
2019-01-12T12:55:39.304Z,-54
2019-01-12T12:56:18.624Z,-53
2019-01-12T12:57:18.928Z,-54
2019-01-12T12:58:31.010Z,-54
2019-01-12T12:59:34.229Z,-54
2019-01-12T13:00:32.405Z,-52
2019-01-12T13:01:34.027Z,-54
2019-01-12T13:02:36.410Z,-53
2019-01-12T13:03:42.253Z,-54
2019-01-12T13:04:46.820Z,-54
2019-01-12T13:05:48.839Z,-54
2019-01-12T13:06:55.127Z,-54
2019-01-12T13:07:54.164Z,-53
2019-01-12T13:08:52.550Z,-53
2019-01-12T13:09:50.467Z,-54
2019-01-12T13:10:48.950Z,-54
2019-01-12T13:11:47.957Z,-54
2019-01-12T13:12:47.004Z,-54
2019-01-12T13:13:45.947Z,-55
2019-01-12T13:14:56.059Z,-54
2019-01-12T13:16:01.484Z,-55
2019-01-12T13:17:00.544Z,-54
2019-01-12T13:18:00.747Z,-54
2019-01-12T13:19:03.292Z,-55
2019-01-12T13:20:03.305Z,-55
2019-01-12T13:21:08.569Z,-55
2019-01-12T13:22:11.762Z,-53
2019-01-12T13:23:11.846Z,-55
2019-01-12T13:24:13.446Z,-55
2019-01-12T13:25:13.117Z,-55
2019-01-12T13:26:14.672Z,-55
2019-01-12T13:27:12.828Z,-55
2019-01-12T13:28:21.961Z,-55
2019-01-12T13:29:20.645Z,-54
2019-01-12T13:30:29.781Z,-55
2019-01-12T13:31:33.213Z,-56
2019-01-12T13:32:37.052Z,-61
2019-01-12T13:33:35.661Z,-55
2019-01-12T13:34:41.000Z,-56
2019-01-12T13:35:39.162Z,-57
2019-01-12T13:36:42.824Z,-58
2019-01-12T13:37:44.845Z,-56
2019-01-12T13:38:51.552Z,-58
2019-01-12T13:39:49.727Z,-58
2019-01-12T13:40:54.027Z,-58
2019-01-12T13:41:56.066Z,-58
2019-01-12T13:42:54.583Z,-56
2019-01-12T13:43:52.850Z,-56
2019-01-12T13:44:58.035Z,-58
2019-01-12T13:46:03.170Z,-55
2019-01-12T13:47:01.762Z,-54
2019-01-12T13:48:02.229Z,-55
2019-01-12T13:49:17.255Z,-57
2019-01-12T13:50:16.511Z,-54
2019-01-12T13:51:14.926Z,-53
2019-01-12T13:52:24.108Z,-54
2019-01-12T13:53:23.557Z,-57